Weather observations for the past three days for
Canton, Cherokee County Airport
Metric (Imperial)
Date Time (edt) Wind (kph) Vis. (km) Weather Sky Cond. Temperature (ºC) Relative Humidity Wind Chill (°C) Heat Index (°C) Pressure Precipitation (cm)
Air Dwpt 6 hour altimeter (cm) sea level (mb) 1 hr 3 hr 6 hr
Max. Min.
04 21:15 S 7 16.09 Fair CLR 19.9 6.7 42% 76.15 0.0
04 20:55 S 7 16.09 Fair CLR 20.3 6.7 41% 76.15 0.0
04 20:35 S 7 16.09 Fair CLR 20.7 7.2 42% 76.12 0.0
04 20:15 S 6 16.09 Fair CLR 21.4 7.6 41% 76.12 0.0
04 19:55 S 9 16.09 Fair CLR 22.3 7.2 25.1 22.2 38% 76.1 0.0
04 19:35 S 6 16.09 Fair CLR 23 7.1 36% 76.1 0.0
04 19:15 S 11 16.09 Fair CLR 23.3 6.9 35% 76.1 0.0
04 18:55 SW 6 16.09 Fair CLR 24 7.7 35% 25 76.1 0.0
04 18:35 SW 7 16.09 Fair CLR 24.3 8.4 36% 25 76.1 0.0
04 18:15 NW 6 16.09 Fair CLR 23.9 7.8 36% 25 76.12 0.0
04 17:55 SW 9 16.09 Fair CLR 24.3 8.8 37% 25 76.12 0.0
04 17:35 SW 6 16.09 Fair CLR 23.9 8.5 38% 25 76.12 0.0
04 17:15 SW 7 16.09 Fair CLR 23.7 7.9 36% 76.12 0.0
04 16:55 SW 11 16.09 Fair CLR 23.7 6.4 33% 76.12 0.0
04 16:35 SW 13 16.09 Fair CLR 24.6 6.3 31% 25 76.15 0.0
04 16:15 SW 11 16.09 Fair CLR 23.7 4.6 29% 76.15 0.0
04 15:55 S 17 16.09 Fair CLR 24.4 7.4 34% 25 76.17 0.0
04 15:35 S 15 16.09 Fair CLR 24.3 8.8 37% 25 76.17 0.0
04 15:15 SW 9 16.09 Fair CLR 23.7 8.9 39% 76.2 0.0
04 14:55 SW 11 16.09 Fair CLR 23.4 8.5 39% 76.23 0.0
04 14:35 SW 15 16.09 Fair CLR 23.5 8.9 39% 76.25 0.0
04 14:15 SW 11 16.09 Fair CLR 23.5 8.9 39% 76.25 0.0
04 13:55 SW 7 16.09 Fair CLR 23 8.3 23.4 7.1 39% 76.28 0.0
04 13:35 SW 7 16.09 Fair CLR 22.6 8.5 41% 76.3 0.0
04 13:15 W 11 16.09 Fair CLR 21.6 7.6 41% 76.33 0.0
04 12:55 SE 7 16.09 Fair CLR 21.8 8.2 42% 76.35 0.0
04 12:35 W 13 16.09 Fair CLR 20.8 7.3 42% 76.35 0.0
04 12:15 NW 6 16.09 Fair CLR 20.2 7.4 44% 76.38 0.0
04 11:55 W 9 16.09 Fair CLR 19.9 6.5 42% 76.4 0.0
04 11:35 NW 13 16.09 Fair CLR 19.9 6.8 43% 76.4 0.0
04 11:15 W 11 16.09 Fair CLR 19.5 7.4 46% 76.4 0.0
04 10:55 NW 6 16.09 Fair CLR 17.8 7.4 51% 76.43 0.0
04 10:35 NW 6 16.09 Fair CLR 16.8 6.9 52% 76.43 0.0
04 10:15 Calm 16.09 Fair CLR 15.7 6.6 55% 76.43 0.0
04 09:55 Calm 16.09 Fair CLR 14.6 6.4 58% 76.43 0.0
04 09:35 Calm 16.09 Fair CLR 13.6 6.8 64% 76.43 0.0
04 09:15 Calm 16.09 Fair CLR 12.8 7.5 70% 76.43 0.0
04 08:55 Calm 16.09 Fair CLR 11.3 7.5 78% 76.43 0.0
04 08:35 Calm 16.09 Fair CLR 9.5 6 79% 76.43 0.0
04 07:55 Calm 16.09 Fair CLR 6.8 5.3 7.8 4.4 90% 76.43 0.0
04 07:35 Calm 16.09 Fair CLR 5.3 4.2 93% 76.43 0.0
04 07:15 Calm 16.09 Fair CLR 5.1 4.6 97% 76.4 0.0
04 06:55 NE 6 16.09 Fair CLR 4.9 4.5 97% 76.4 0.0
04 06:35 Calm 16.09 Fair CLR 5 4.2 95% 76.38 0.0
04 06:15 Calm 16.09 Fair CLR 5 4.2 95% 76.38 0.0
04 05:55 Calm 16.09 Fair CLR 5.2 4 92% 76.38 0.0
04 05:35 N 6 16.09 Fair CLR 5 4.2 95% 76.38 0.0
04 05:15 Calm 16.09 Fair CLR 6.1 5 93% 76.38 0.0
04 04:55 Calm 16.09 Fair CLR 5.5 4.8 95% 76.38 0.0
04 04:35 N 6 16.09 Fair CLR 5.2 4.7 97% 76.38 0.0
04 04:15 N 7 16.09 Fair CLR 5.6 5 96% 4 76.38 0.0
04 03:55 N 6 16.09 Fair CLR 5.4 4.8 96% 76.35 0.0
04 03:35 Calm 16.09 Fair CLR 7.1 5.5 90% 76.38 0.0
04 03:15 Calm 16.09 Fair CLR 7.1 5.5 90% 76.38 0.0
04 02:55 N 6 16.09 Fair CLR 6.2 5.5 95% 76.4 0.0
04 02:35 N 7 16.09 Fair CLR 6.3 5.3 93% 5 76.4 0.0
04 02:15 Calm 16.09 Fair CLR 7 5.9 93% 76.43 0.0
04 01:55 N 6 16.09 Fair CLR 7.2 5.9 17.7 7 92% 76.43 0.0
04 01:35 N 9 16.09 Fair CLR 7.2 6 92% 6 76.43 0.0
04 01:15 Calm 16.09 Fair CLR 7.6 6.2 91% 76.43 0.0
04 00:55 Calm 16.09 Fair CLR 7.6 6.2 91% 76.43 0.0
04 00:35 Calm 16.09 Fair CLR 8.7 6.5 86% 76.43 0.0
04 00:15 Calm 16.09 Fair CLR 9.4 6.5 82% 76.43 0.0
03 23:55 Calm 16.09 Fair CLR 11.1 6.1 72% 76.43 0.0
03 23:35 Calm 16.09 Fair CLR 10.1 5.5 73% 76.43 0.0
03 23:15 Calm 16.09 Fair CLR 10.9 5.8 71% 76.43 0.0
03 22:55 Calm 16.09 Fair CLR 12.2 5.2 63% 76.43 0.0
03 22:35 W 6 16.09 Fair CLR 13.3 5.7 60% 76.43 0.0
03 22:15 W 7 16.09 Fair CLR 12.2 5.8 65% 76.4 0.0
03 21:55 W 9 16.09 Fair CLR 12.9 5.5 61% 76.4 0.0
03 21:35 W 7 16.09 Fair CLR 15.2 4.7 50% 76.38 0.0
03 21:15 W 7 16.09 Fair CLR 15.9 4.1 46% 76.35 0.0
03 20:55 W 6 16.09 Fair CLR 16.1 4.2 45% 76.35 0.0
03 20:35 NW 6 16.09 Fair CLR 16.3 4.1 44% 76.35 0.0
03 20:15 NW 7 16.09 Fair CLR 17.2 3.8 41% 76.33 0.0
03 19:55 W 7 16.09 Fair CLR 17.7 3.7 20.2 17.2 40% 76.33 0.0
03 19:35 NW 11 16.09 Fair CLR 18.1 3.3 38% 76.33 0.0
03 19:15 W 13 16.09 Fair CLR 18.6 3.4 37% 76.33 0.0
03 18:55 NW 11 16.09 Fair CLR 18.9 3.6 36% 76.35 0.0
03 18:35 NW 13 16.09 Fair CLR 18.8 3.3 36% 76.35 0.0
03 18:15 NW 17 16.09 Fair CLR 19.1 3.1 35% 76.35 0.0
03 17:55 NW 15 16.09 Fair CLR 18.9 2.9 35% 76.35 0.0
03 17:35 W 15 16.09 Fair CLR 19.3 2.6 33% 76.35 0.0
03 17:15 W 17 16.09 Fair CLR 19.5 1.4 30% 76.38 0.0
03 16:55 W 19 16.09 Fair CLR 19.3 0.9 29% 76.38 0.0
03 16:35 W 11 16.09 Fair CLR 19 1.9 32% 76.4 0.0
03 16:15 W 15 16.09 Fair CLR 19.2 1.7 31% 76.43 0.0
03 15:55 W 20 16.09 Fair CLR 19.5 2.9 33% 76.45 0.0
03 15:35 W 9 16.09 Fair CLR 18.7 2.6 34% 76.45 0.0
03 15:15 W 20 16.09 Fair CLR 18.9 1.8 32% 76.5 0.0
03 14:55 W 20 G 26 16.09 Fair CLR 18.1 2 34% 76.5 0.0
03 14:35 NW 13 16.09 Fair CLR 17.7 -0.5 29% 76.53 0.0
03 14:15 W 19 16.09 Fair CLR 17.9 1.8 34% 76.53 0.0
03 13:55 W 15 16.09 Fair CLR 17.9 2.2 18.2 7.2 35% 76.53 0.0
03 13:35 W 17 G 28 16.09 Fair CLR 17.3 2.4 37% 76.56 0.0
03 13:15 W 17 16.09 Fair CLR 16.7 2.5 39% 76.56 0.0
03 12:55 N 9 16.09 Fair CLR 16.8 4.2 43% 76.56 0.0
03 12:35 NW 13 16.09 Fair CLR 16 1.5 38% 76.61 0.0
03 12:15 W 13 16.09 Fair CLR 15.9 1.8 39% 76.61 0.0
03 11:55 NW 13 16.09 Fair CLR 15.9 2.6 41% 76.63 0.0
03 11:35 NW 11 16.09 Fair CLR 14.9 2.3 43% 76.63 0.0
03 11:15 NW 11 16.09 Fair CLR 15.1 2.7 44% 76.63 0.0
03 10:55 NW 15 16.09 Fair CLR 14.2 1.9 44% 76.63 0.0
03 10:35 NW 7 16.09 Fair CLR 13.8 2.5 47% 76.61 0.0
03 10:15 W 9 16.09 Fair CLR 13.8 3.2 49% 76.61 0.0
03 09:55 W 6 16.09 Fair CLR 12.7 3.9 55% 76.61 0.0
03 09:35 Calm 16.09 Fair CLR 12.4 5.1 61% 76.61 0.0
03 09:15 Calm 16.09 Fair CLR 11.1 5.1 67% 76.58 0.0
03 08:55 Calm 16.09 Fair CLR 9.9 4.8 71% 76.58 0.0
03 08:35 N 6 16.09 Fair CLR 8.9 4.5 74% 76.56 0.0
03 08:15 Calm 16.09 Fair CLR 8 4 76% 76.56 0.0
03 07:55 Calm 16.09 Fair CLR 6.6 4.3 9.1 4.2 85% 76.56 0.0
03 07:35 NW 6 16.09 Fair CLR 5.8 3.8 87% 76.56 0.0
03 07:15 Calm 16.09 Fair CLR 4.3 3.7 96% 76.53 0.0
03 06:35 NW 7 16.09 Fair CLR 5 3.7 91% 4 76.5 0.0
03 06:15 Calm 16.09 Fair CLR 4.9 4.3 96% 76.48 0.0
03 05:55 Calm 16.09 Fair CLR 6 3.5 84% 76.45 0.0
03 05:35 NW 7 16.09 Fair CLR 6.7 3.9 83% 6 76.45 0.0
03 05:15 NW 7 16.09 Fair CLR 6.7 3.8 82% 6 76.45 0.0
03 04:55 NW 7 16.09 Fair CLR 5.8 3.7 87% 5 76.45 0.0
03 04:35 Calm 16.09 Fair CLR 6.9 3.8 81% 76.43 0.0
03 04:15 Calm 16.09 Fair CLR 7.8 3.6 75% 76.4 0.0
03 03:55 W 9 16.09 Fair CLR 8.1 3.4 73% 7 76.4 0.0
03 03:35 W 6 16.09 Fair CLR 8 3.3 72% 76.38 0.0
03 03:15 NW 9 16.09 Fair CLR 8.3 3.1 70% 7 76.38 0.0
03 02:55 NW 9 16.09 Fair CLR 8 3.2 72% 7 76.35 0.0
03 02:35 NW 11 16.09 Fair CLR 9 2.8 65% 8 76.38 0.0
03 02:15 NW 7 16.09 Fair CLR 8.8 3 67% 8 76.38 0.0
03 01:55 NW 7 16.09 Fair CLR 8.5 2.9 15.8 8.2 68% 8 76.38 0.0
03 01:35 NW 7 16.09 Fair CLR 9.2 2.8 65% 8 76.38 0.0
03 01:15 Calm 16.09 Fair CLR 9.3 2.9 65% 76.38 0.0
03 00:55 NW 9 16.09 Partly Cloudy SCT085 10.1 2.6 60% 76.35 0.0
03 00:35 NW 9 16.09 Overcast OVC095 9.5 3.3 66% 8 76.35 0.0
03 00:15 Calm 16.09 Partly Cloudy SCT095 10.5 2.3 57% 76.35 0.0
02 23:55 Calm 16.09 Fair CLR 10.2 2.4 59% 76.35 0.0
02 23:35 NW 7 16.09 Fair CLR 10.3 2.4 58% 76.33 0.0
02 23:15 NW 9 16.09 Partly Cloudy SCT090 10.3 2.5 59% 76.33 0.0
02 22:55 NW 9 16.09 Partly Cloudy SCT090 11.3 2.1 53% 76.3 0.0
02 22:35 N 7 16.09 Partly Cloudy SCT090 11.6 2.3 53% 76.3 0.0
02 22:15 Calm 16.09 Fair CLR 11.7 2.1 52% 76.28 0.0
02 21:55 NW 6 16.09 Fair CLR 12.8 1.4 46% 76.25 0.0
02 21:35 NW 6 16.09 Fair CLR 12.8 1.5 46% 76.23 0.0
02 21:15 NW 9 16.09 Fair CLR 13.2 1.4 45% 76.2 0.0
02 20:55 NW 7 16.09 Fair CLR 13.9 0.9 41% 76.17 0.0
02 20:35 NW 9 16.09 Fair CLR 14.4 0.7 40% 76.15 0.0
02 20:15 NW 11 16.09 Fair CLR 15.2 0.2 36% 76.15 0.0
02 19:55 NW 13 G 28 16.09 Fair CLR 16 -0.2 19.9 15.9 33% 76.12 0.0
02 19:35 NW 13 16.09 Fair CLR 16.4 0.2 33% 76.1 0.0
02 19:15 NW 24 G 31 16.09 Partly Cloudy SCT075 16.9 -0.1 32% 76.1 0.0
02 18:55 NW 19 G 43 16.09 Fair CLR 17.2 -0.5 30% 76.07 0.0
02 18:35 NW 20 G 39 16.09 Fair CLR 17.6 -0.3 30% 76.1 0.0
02 18:15 NW 20 G 37 16.09 Fair CLR 17.7 -0.6 29% 76.07 0.0
02 17:55 NW 24 G 35 16.09 Fair CLR 18.1 -0.6 28% 76.07 0.0
02 17:35 NW 28 G 37 16.09 Fair CLR 18.1 -1.5 27% 76.02 0.0
02 17:15 NW 26 G 39 16.09 Fair CLR 18.2 0.1 30% 76.02 0.0
02 16:55 NW 30 G 48 16.09 Fair CLR 18.2 0 29% 76 0.0
02 16:35 NW 30 G 46 16.09 Fair CLR 18.5 0.3 30% 75.97 0.0
02 16:15 NW 24 G 43 16.09 Fair CLR 19.1 0.6 29% 76 0.0
02 15:55 NW 20 G 33 16.09 Fair CLR 19.1 1.9 32% 75.97 0.0
02 15:35 NW 24 G 39 16.09 Fair CLR 19 3.4 36% 75.97 0.0
02 15:15 W 22 G 28 16.09 Partly Cloudy SCT050 19.2 4.7 39% 76 0.0
02 14:55 NW 24 G 37 16.09 Partly Cloudy SCT049 18.7 5.3 42% 75.97 0.0
02 14:35 NW 24 G 31 16.09 Partly Cloudy SCT049 19 5.8 42% 76 0.0
02 14:15 NW 22 G 33 16.09 Partly Cloudy SCT047 SCT055 19 6.6 45% 76 0.0
02 13:55 W 19 16.09 Mostly Cloudy SCT049 BKN055 19 7.2 19.3 11.9 46% 76 0.0
02 13:35 NW 11 16.09 Partly Cloudy SCT047 SCT055 SCT065 18.4 7 48% 76 0.0
02 13:15 N 7 16.09 Partly Cloudy SCT060 SCT065 17.8 4.9 43% 76.02 0.0
02 12:55 N 15 16.09 Partly Cloudy SCT060 18.1 5.3 43% 76.02 0.0
02 12:35 N 13 16.09 Partly Cloudy SCT060 17.8 6.2 47% 76.05 0.0
02 12:15 N 13 16.09 Mostly Cloudy BKN070 17.2 6.4 49% 76.05 0.0
02 11:55 NW 11 16.09 Mostly Cloudy BKN060 BKN070 16.6 7.2 54% 76.05 0.0
02 11:35 SW 6 16.09 Overcast OVC060 15.9 8 60% 76.07 0.0
02 11:15 NW 11 16.09 Overcast OVC060 15.1 6.9 58% 76.07 0.0
02 10:55 N 6 16.09 Overcast OVC060 14.5 6.9 61% 76.05 0.0
02 10:35 NW 9 16.09 Overcast BKN060 OVC070 14.4 7 61% 76.05 0.0
02 10:15 NW 7 16.09 Overcast OVC060 13.6 6.5 62% 76.02 0.0
02 09:55 NW 9 16.09 Overcast SCT060 OVC120 13 6.7 66% 76.02 0.0
02 09:35 N 7 16.09 Overcast OVC120 12.8 6.5 66% 76 0.0
02 09:15 NW 7 16.09 Mostly Cloudy BKN120 12.6 6.4 66% 76.02 0.0
02 08:55 NW 9 16.09 Partly Cloudy SCT120 12.3 5.7 64% 75.97 0.0
02 08:35 NW 9 16.09 Fair CLR 12.1 5.4 64% 76 0.0
02 08:15 NW 7 16.09 Partly Cloudy SCT110 12 5.1 63% 75.97 0.0
02 07:55 NW 11 16.09 Mostly Cloudy BKN100 11.9 5 14.1 11.9 63% 75.97 0.0
02 07:35 NW 7 16.09 Mostly Cloudy BKN100 BKN120 12 4.8 62% 75.97 0.0
02 07:15 NW 9 16.09 Overcast OVC100 12.1 4.9 62% 76 0.0
02 06:55 NW 9 16.09 Mostly Cloudy BKN090 BKN120 12.3 4.8 60% 75.97 0.0
02 06:35 NW 11 16.09 Mostly Cloudy BKN110 12.4 4.7 60% 75.95 0.0
02 06:15 NW 13 16.09 Overcast OVC100 12.6 4.7 59% 75.9 0.0
02 05:55 NW 13 16.09 Overcast BKN090 OVC110 12.7 4.9 59% 75.92 0.0
02 05:35 NW 13 16.09 Overcast OVC120 12.7 5.1 60% 75.95 0.0
02 05:15 NW 11 16.09 Overcast OVC120 12.9 5 59% 75.92 0.0
02 04:55 NW 11 16.09 Mostly Cloudy BKN120 13.1 5.1 59% 75.92 0.0
02 04:35 N 9 16.09 Partly Cloudy SCT120 13.2 5.4 59% 75.92 0.0
02 04:15 NW 15 16.09 Overcast OVC120 13.3 5.5 59% 75.92 0.0
02 03:55 NW 13 16.09 Overcast OVC110 13.5 6 61% 75.95 0.0
02 03:15 NW 7 16.09 Overcast OVC100 13.7 7.2 65% 75.97 0.0
02 02:55 NW 11 16.09 Overcast OVC100 13.9 7.4 65% 76 0.0
02 02:35 NW 13 16.09 Overcast OVC100 13.9 7.6 66% 76 0.0
02 02:15 NW 11 16.09 Overcast OVC100 13.9 7.8 67% 76 0.0
02 01:55 W 7 16.09 Overcast OVC100 13.8 8.2 16.5 13.5 69% 76 0.0
02 01:35 NW 6 16.09 Overcast OVC110 13.6 8.6 72% 76 0.0
02 01:15 NW 7 16.09 Overcast OVC110 14.2 7.9 66% 76.02 0.0
02 00:55 NW 6 16.09 Mostly Cloudy BKN110 14.1 7.8 66% 76.02 0.0
02 00:35 Calm 16.09 Overcast SCT080 OVC100 14.1 8.1 67% 76.02 0.0
02 00:15 Calm 16.09 Overcast SCT070 OVC090 14.3 8.4 68% 76.07 0.0
01 23:55 N 6 16.09 Overcast SCT080 OVC100 13.8 9.2 74% 76.07 0.0
01 23:35 NW 6 16.09 Overcast SCT075 OVC100 14.2 9.1 72% 76.07 0.0
01 23:15 N 6 16.09 Overcast OVC100 14.7 8.5 67% 76.1 0.0
01 22:55 N 6 16.09 Overcast OVC110 15 8.4 65% 76.1 0.0
01 22:35 NW 6 16.09 Overcast OVC120 14.6 8.9 69% 76.07 0.0
01 22:15 NW 6 16.09 Overcast OVC120 14.7 9.3 70% 76.07 0.0
01 21:55 NW 6 16.09 Partly Cloudy SCT120 14.9 9.4 70% 76.07 0.0
01 21:35 NW 6 16.09 Partly Cloudy SCT120 15.2 9.5 69% 76.05 0.0
Date Time (edt) Wind (kph) Vis. (km) Weather Sky Cond. Air Dwpt Max. Min. Relative Humidity Wind Chill (°C) Heat Index (°C) altimeter (cm) sea level (mb) 1 hr 3 hr 6 hr
6 hour
Temperature (ºC) Pressure Precipitation (cm)